Time,TemperatureF,DewpointF,PressureIn,WindDirection,WindDirectionDegrees,WindSpeedMPH,WindSpeedGustMPH,Humidity,HourlyPrecipIn,Conditions,Clouds,dailyrainin,SoftwareType,DateUTC
2013-01-27 00:00:00,17.1,14.2,30.42,SE,136,2.0,2.0,88,0.00,,,0.05,VWS V14.01,2013-01-27 05:00:00,
2013-01-27 00:01:00,17.1,13.9,30.42,SE,136,2.0,2.0,87,0.00,,OVC100,0.00,VWS V14.01,2013-01-27 05:01:00,
2013-01-27 00:06:00,17.1,13.9,30.41,SE,136,2.0,3.0,87,0.00,,OVC100,0.00,VWS V14.01,2013-01-27 05:06:00,
2013-01-27 00:11:00,17.1,13.9,30.41,SE,136,3.0,3.0,87,0.00,,OVC100,0.00,VWS V14.01,2013-01-27 05:11:00,
2013-01-27 00:16:00,17.2,14.0,30.42,SE,138,2.0,2.0,87,0.00,,OVC100,0.00,VWS V14.01,2013-01-27 05:16:00,
2013-01-27 00:21:00,17.2,14.0,30.42,SE,137,2.0,2.0,87,0.00,,OVC100,0.00,VWS V14.01,2013-01-27 05:21:00,
2013-01-27 00:26:00,17.4,14.2,30.41,SE,134,2.0,3.0,87,0.00,,OVC100,0.00,VWS V14.01,2013-01-27 05:26:00,
2013-01-27 00:31:00,17.5,14.3,30.41,ESE,121,3.0,4.0,87,0.00,,OVC100,0.00,VWS V14.01,2013-01-27 05:31:00,
2013-01-27 00:36:00,17.8,14.3,30.41,SE,127,1.0,3.0,86,0.00,,OVC100,0.00,VWS V14.01,2013-01-27 05:36:00,
2013-01-27 00:41:00,17.9,14.4,30.42,SE,136,1.0,2.0,86,0.00,,OVC100,0.00,VWS V14.01,2013-01-27 05:41:00,
2013-01-27 00:46:00,17.7,14.2,30.42,SE,132,2.0,2.0,86,0.00,,OVC100,0.00,VWS V14.01,2013-01-27 05:46:00,
2013-01-27 00:51:00,17.9,14.7,30.42,SE,133,2.0,2.0,87,0.00,,OVC100,0.00,VWS V14.01,2013-01-27 05:51:00,
2013-01-27 00:56:00,18.1,14.6,30.41,SE,132,2.0,3.0,86,0.00,,OVC100,0.00,VWS V14.01,2013-01-27 05:56:00,
2013-01-27 01:01:00,18.3,14.8,30.42,SE,134,2.0,3.0,86,0.00,,OVC036,0.00,VWS V14.01,2013-01-27 06:01:00,
2013-01-27 01:06:00,18.7,15.2,30.42,SE,125,3.0,4.0,86,0.00,,OVC036,0.00,VWS V14.01,2013-01-27 06:06:00,
2013-01-27 01:11:00,19.1,15.3,30.41,SE,136,4.0,4.0,85,0.00,,OVC036,0.00,VWS V14.01,2013-01-27 06:11:00,
2013-01-27 01:16:00,19.4,15.4,30.42,SE,127,4.0,4.0,84,0.00,,OVC036,0.00,VWS V14.01,2013-01-27 06:16:00,
2013-01-27 01:21:00,19.6,15.6,30.41,SSE,164,4.0,4.0,84,0.00,,OVC036,0.00,VWS V14.01,2013-01-27 06:21:00,
2013-01-27 01:26:00,19.6,15.3,30.41,SSE,150,3.0,3.0,83,0.00,,OVC036,0.00,VWS V14.01,2013-01-27 06:26:00,
2013-01-27 01:31:00,19.7,15.4,30.41,SE,127,3.0,3.0,83,0.00,,OVC036,0.00,VWS V14.01,2013-01-27 06:31:00,
2013-01-27 01:36:00,19.7,15.4,30.41,SSE,150,0.0,2.0,83,0.00,,OVC036,0.00,VWS V14.01,2013-01-27 06:36:00,
2013-01-27 01:41:00,19.7,15.4,30.41,SE,138,1.0,4.0,83,0.00,,OVC036,0.00,VWS V14.01,2013-01-27 06:41:00,
2013-01-27 01:46:00,19.7,15.4,30.41,South,180,0.0,1.0,83,0.00,,OVC036,0.00,VWS V14.01,2013-01-27 06:46:00,
2013-01-27 01:51:00,19.7,15.4,30.41,SE,144,1.0,3.0,83,0.00,,OVC036,0.00,VWS V14.01,2013-01-27 06:51:00,
2013-01-27 01:56:00,19.7,15.4,30.41,South,184,2.0,2.0,83,0.00,,OVC036,0.00,VWS V14.01,2013-01-27 06:56:00,
2013-01-27 02:01:00,19.8,15.5,30.41,SSW,195,1.0,4.0,83,0.00,,OVC032,0.00,VWS V14.01,2013-01-27 07:01:00,
2013-01-27 02:07:00,20.0,15.7,30.41,ESE,121,1.0,4.0,83,0.00,,OVC032,0.00,VWS V14.01,2013-01-27 07:07:00,
2013-01-27 02:13:00,20.2,15.6,30.41,SE,127,2.0,4.0,82,0.00,,OVC032,0.00,VWS V14.01,2013-01-27 07:13:00,
2013-01-27 02:18:00,20.2,15.6,30.41,SW,233,4.0,5.0,82,0.00,,OVC032,0.00,VWS V14.01,2013-01-27 07:18:00,
2013-01-27 02:23:00,20.3,15.4,30.41,West,263,4.0,4.0,81,0.00,,OVC032,0.00,VWS V14.01,2013-01-27 07:23:00,
2013-01-27 02:28:00,20.4,15.5,30.41,SSW,193,5.0,7.0,81,0.00,,OVC032,0.00,VWS V14.01,2013-01-27 07:28:00,
2013-01-27 02:33:00,20.5,15.6,30.41,SW,223,3.0,5.0,81,0.00,,OVC032,0.00,VWS V14.01,2013-01-27 07:33:00,
2013-01-27 02:38:00,20.6,15.7,30.41,ESE,121,3.0,5.0,81,0.00,,OVC032,0.00,VWS V14.01,2013-01-27 07:38:00,
2013-01-27 02:43:00,20.7,15.8,30.40,SW,226,5.0,8.0,81,0.00,,OVC032,0.00,VWS V14.01,2013-01-27 07:43:00,
2013-01-27 02:48:00,20.9,15.7,30.41,SSE,160,3.0,7.0,80,0.00,,OVC032,0.00,VWS V14.01,2013-01-27 07:48:00,
2013-01-27 02:53:00,20.8,15.9,30.41,SSW,207,2.0,2.0,81,0.00,,OVC032,0.00,VWS V14.01,2013-01-27 07:53:00,
2013-01-27 02:58:00,20.7,15.8,30.41,SE,134,1.0,5.0,81,0.00,,OVC032,0.00,VWS V14.01,2013-01-27 07:58:00,
2013-01-27 03:03:00,20.6,15.7,30.41,SE,140,4.0,4.0,81,0.00,,OVC120,0.00,VWS V14.01,2013-01-27 08:03:00,
2013-01-27 03:08:00,20.5,15.6,30.39,SE,131,2.0,3.0,81,0.00,,OVC120,0.00,VWS V14.01,2013-01-27 08:08:00,
2013-01-27 03:13:00,20.5,15.6,30.40,SE,137,4.0,4.0,81,0.00,,OVC120,0.00,VWS V14.01,2013-01-27 08:13:00,
2013-01-27 03:18:00,20.5,15.6,30.39,SSE,161,1.0,3.0,81,0.00,,OVC120,0.00,VWS V14.01,2013-01-27 08:18:00,
2013-01-27 03:23:00,20.5,15.6,30.39,ESE,116,3.0,4.0,81,0.00,,OVC120,0.00,VWS V14.01,2013-01-27 08:23:00,
2013-01-27 03:28:00,20.5,15.9,30.39,SE,137,2.0,2.0,82,0.00,,OVC120,0.00,VWS V14.01,2013-01-27 08:28:00,
2013-01-27 03:33:00,20.6,15.7,30.39,SE,132,2.0,3.0,81,0.00,,OVC120,0.00,VWS V14.01,2013-01-27 08:33:00,
2013-01-27 03:38:00,20.5,15.9,30.39,SE,126,4.0,4.0,82,0.00,,OVC120,0.00,VWS V14.01,2013-01-27 08:38:00,
2013-01-27 03:43:00,20.5,15.9,30.40,SE,126,0.0,2.0,82,0.00,,OVC120,0.00,VWS V14.01,2013-01-27 08:43:00,
2013-01-27 03:48:00,20.5,15.9,30.39,SSE,149,2.0,4.0,82,0.00,,OVC120,0.00,VWS V14.01,2013-01-27 08:48:00,
2013-01-27 03:53:00,20.1,15.5,30.39,SE,140,1.0,3.0,82,0.00,,OVC120,0.00,VWS V14.01,2013-01-27 08:53:00,
2013-01-27 03:58:00,19.8,15.5,30.39,SE,128,3.0,4.0,83,0.00,,OVC120,0.00,VWS V14.01,2013-01-27 08:58:00,
2013-01-27 04:03:00,19.5,15.2,30.38,SE,125,4.0,4.0,83,0.00,,OVC120,0.00,VWS V14.01,2013-01-27 09:03:00,
2013-01-27 04:08:00,19.4,15.1,30.39,SE,128,3.0,3.0,83,0.00,,OVC120,0.00,VWS V14.01,2013-01-27 09:08:00,
2013-01-27 04:13:00,19.5,15.2,30.39,SE,128,3.0,3.0,83,0.00,,OVC120,0.00,VWS V14.01,2013-01-27 09:13:00,
2013-01-27 04:18:00,19.6,15.3,30.39,SE,129,3.0,3.0,83,0.00,,OVC120,0.00,VWS V14.01,2013-01-27 09:18:00,
2013-01-27 04:23:00,19.6,15.3,30.39,SE,126,3.0,3.0,83,0.00,,OVC120,0.00,VWS V14.01,2013-01-27 09:23:00,
2013-01-27 04:29:00,19.6,15.3,30.39,ESE,120,3.0,3.0,83,0.00,,OVC120,0.00,VWS V14.01,2013-01-27 09:29:00,
2013-01-27 04:34:00,19.5,15.2,30.39,ESE,120,3.0,3.0,83,0.00,,OVC120,0.00,VWS V14.01,2013-01-27 09:34:00,
2013-01-27 04:39:00,19.4,15.1,30.39,SE,125,2.0,3.0,83,0.00,,OVC120,0.00,VWS V14.01,2013-01-27 09:39:00,
2013-01-27 04:44:00,19.4,15.4,30.38,SE,127,3.0,3.0,84,0.00,,OVC120,0.00,VWS V14.01,2013-01-27 09:44:00,
2013-01-27 04:49:00,19.4,15.1,30.39,SE,124,2.0,4.0,83,0.00,,OVC120,0.00,VWS V14.01,2013-01-27 09:49:00,
2013-01-27 04:54:00,19.5,15.2,30.39,ESE,119,2.0,3.0,83,0.00,,OVC120,0.00,VWS V14.01,2013-01-27 09:54:00,
2013-01-27 04:59:00,19.4,15.4,30.39,ESE,117,2.0,4.0,84,0.00,,OVC120,0.00,VWS V14.01,2013-01-27 09:59:00,
2013-01-27 05:04:00,19.3,15.0,30.39,SE,130,3.0,3.0,83,0.00,,OVC065,0.00,VWS V14.01,2013-01-27 10:04:00,
2013-01-27 05:09:00,19.4,15.4,30.39,SE,130,3.0,4.0,84,0.00,,OVC065,0.00,VWS V14.01,2013-01-27 10:09:00,
2013-01-27 05:14:00,19.5,15.5,30.39,SE,130,3.0,4.0,84,0.00,,OVC065,0.00,VWS V14.01,2013-01-27 10:14:00,
2013-01-27 05:19:00,19.6,15.6,30.38,SE,125,4.0,4.0,84,0.00,,OVC065,0.00,VWS V14.01,2013-01-27 10:19:00,
2013-01-27 05:24:00,19.8,15.8,30.38,SE,127,3.0,4.0,84,0.00,,OVC065,0.00,VWS V14.01,2013-01-27 10:24:00,
2013-01-27 05:29:00,19.8,15.8,30.38,ESE,123,4.0,4.0,84,0.00,,OVC065,0.00,VWS V14.01,2013-01-27 10:29:00,
2013-01-27 05:34:00,20.0,15.9,30.38,SE,134,4.0,4.0,84,0.00,,OVC065,0.00,VWS V14.01,2013-01-27 10:34:00,
2013-01-27 05:39:00,20.1,16.0,30.38,ESE,121,3.0,3.0,84,0.00,,OVC065,0.00,VWS V14.01,2013-01-27 10:39:00,
2013-01-27 05:44:00,20.6,16.5,30.37,SE,128,3.0,4.0,84,0.00,,OVC065,0.00,VWS V14.01,2013-01-27 10:44:00,
2013-01-27 05:49:00,20.8,16.7,30.37,SE,146,0.0,2.0,84,0.00,,OVC065,0.00,VWS V14.01,2013-01-27 10:49:00,
2013-01-27 05:54:00,21.1,16.8,30.37,SE,133,2.0,3.0,83,0.00,,OVC065,0.00,VWS V14.01,2013-01-27 10:54:00,
2013-01-27 05:59:00,21.6,17.2,30.37,SW,227,4.0,4.0,83,0.00,,OVC065,0.00,VWS V14.01,2013-01-27 10:59:00,
2013-01-27 06:04:00,21.9,17.5,30.36,SE,140,3.0,6.0,83,0.00,,OVC070,0.00,VWS V14.01,2013-01-27 11:04:00,
2013-01-27 06:09:00,22.2,17.5,30.36,SW,232,4.0,4.0,82,0.00,,OVC070,0.00,VWS V14.01,2013-01-27 11:09:00,
2013-01-27 06:14:00,22.3,17.6,30.36,SW,224,5.0,6.0,82,0.00,,OVC070,0.00,VWS V14.01,2013-01-27 11:14:00,
2013-01-27 06:19:00,22.3,17.6,30.36,ESE,122,5.0,8.0,82,0.00,,OVC070,0.00,VWS V14.01,2013-01-27 11:19:00,
2013-01-27 06:24:00,22.4,17.8,30.36,SW,220,6.0,7.0,82,0.00,,OVC070,0.00,VWS V14.01,2013-01-27 11:24:00,
2013-01-27 06:29:00,22.4,17.8,30.36,South,191,5.0,7.0,82,0.00,,OVC070,0.00,VWS V14.01,2013-01-27 11:29:00,
2013-01-27 06:34:00,22.4,17.8,30.37,SSW,195,4.0,7.0,82,0.00,,OVC070,0.00,VWS V14.01,2013-01-27 11:34:00,
2013-01-27 06:39:00,22.4,17.8,30.36,SSW,207,4.0,5.0,82,0.00,,OVC070,0.00,VWS V14.01,2013-01-27 11:39:00,
2013-01-27 06:44:00,22.4,17.8,30.36,SSW,211,7.0,7.0,82,0.00,,OVC070,0.00,VWS V14.01,2013-01-27 11:44:00,
2013-01-27 06:49:00,22.5,17.9,30.36,SW,233,5.0,6.0,82,0.00,,OVC070,0.00,VWS V14.01,2013-01-27 11:49:00,
2013-01-27 06:54:00,22.7,18.0,30.36,SSW,209,6.0,6.0,82,0.00,,OVC070,0.00,VWS V14.01,2013-01-27 11:54:00,
2013-01-27 06:59:00,22.9,18.2,30.36,ESE,117,5.0,7.0,82,0.00,,OVC070,0.00,VWS V14.01,2013-01-27 11:59:00,
2013-01-27 07:04:00,23.0,18.3,30.35,South,191,5.0,7.0,82,0.00,,OVC070,0.00,VWS V14.01,2013-01-27 12:04:00,
2013-01-27 07:09:00,23.1,18.4,30.36,SSW,205,5.0,9.0,82,0.00,,OVC070,0.00,VWS V14.01,2013-01-27 12:09:00,
2013-01-27 07:14:00,23.3,18.6,30.35,SE,128,2.0,8.0,82,0.00,,OVC070,0.00,VWS V14.01,2013-01-27 12:14:00,
2013-01-27 07:19:00,23.4,18.7,30.35,SSE,157,2.0,5.0,82,0.00,,OVC070,0.00,VWS V14.01,2013-01-27 12:19:00,
2013-01-27 07:24:00,23.5,18.8,30.35,SW,219,7.0,7.0,82,0.00,,OVC070,0.00,VWS V14.01,2013-01-27 12:24:00,
2013-01-27 07:29:00,23.5,19.1,30.35,SSW,207,2.0,4.0,83,0.00,,OVC070,0.00,VWS V14.01,2013-01-27 12:29:00,
2013-01-27 07:34:00,23.5,19.1,30.35,SW,216,9.0,10.0,83,0.00,,OVC070,0.00,VWS V14.01,2013-01-27 12:34:00,
2013-01-27 07:39:00,23.5,19.1,30.35,SSW,210,4.0,6.0,83,0.00,,OVC070,0.00,VWS V14.01,2013-01-27 12:39:00,
2013-01-27 07:44:00,23.6,19.2,30.35,SW,215,4.0,5.0,83,0.00,,OVC070,0.00,VWS V14.01,2013-01-27 12:44:00,
2013-01-27 07:49:00,23.7,19.3,30.35,SW,214,6.0,10.0,83,0.00,,OVC070,0.00,VWS V14.01,2013-01-27 12:49:00,
2013-01-27 07:54:00,23.8,19.4,30.35,SSW,210,7.0,7.0,83,0.00,,OVC070,0.00,VWS V14.01,2013-01-27 12:54:00,
2013-01-27 07:59:00,23.9,19.8,30.35,SW,223,3.0,6.0,84,0.00,,OVC070,0.00,VWS V14.01,2013-01-27 12:59:00,
2013-01-27 08:04:00,23.8,20.0,30.35,SSW,211,3.0,6.0,85,0.00,,OVC024,0.00,VWS V14.01,2013-01-27 13:04:00,
2013-01-27 08:09:00,23.8,20.5,30.35,SE,135,2.0,6.0,87,0.00,,OVC024,0.00,VWS V14.01,2013-01-27 13:09:00,
2013-01-27 08:14:00,23.7,20.4,30.35,SSW,193,3.0,7.0,87,0.00,,OVC024,0.00,VWS V14.01,2013-01-27 13:14:00,
2013-01-27 08:19:00,23.7,20.7,30.35,SW,231,5.0,6.0,88,0.00,,OVC024,0.00,VWS V14.01,2013-01-27 13:19:00,
2013-01-27 08:24:00,23.8,20.8,30.35,SE,143,4.0,7.0,88,0.00,,OVC024,0.00,VWS V14.01,2013-01-27 13:24:00,
2013-01-27 08:29:00,23.9,20.9,30.35,SSE,165,4.0,6.0,88,0.00,,OVC024,0.00,VWS V14.01,2013-01-27 13:29:00,
2013-01-27 08:35:00,24.0,21.0,30.34,SW,222,6.0,6.0,88,0.00,,OVC024,0.00,VWS V14.01,2013-01-27 13:35:00,
2013-01-27 08:40:00,24.2,20.9,30.34,South,178,6.0,7.0,87,0.00,,OVC024,0.00,VWS V14.01,2013-01-27 13:40:00,
2013-01-27 08:45:00,24.2,20.6,30.34,SSE,150,3.0,7.0,86,0.00,,OVC024,0.00,VWS V14.01,2013-01-27 13:45:00,
2013-01-27 08:50:00,24.4,20.8,30.34,SSW,205,10.0,12.0,86,0.00,,OVC024,0.00,VWS V14.01,2013-01-27 13:50:00,
2013-01-27 08:55:00,24.5,20.6,30.34,SSW,196,2.0,7.0,85,0.00,,OVC024,0.00,VWS V14.01,2013-01-27 13:55:00,
2013-01-27 09:00:00,24.6,20.7,30.34,SW,232,3.0,7.0,85,0.00,,OVC024,0.00,VWS V14.01,2013-01-27 14:00:00,
2013-01-27 09:05:00,24.7,20.6,30.33,SSW,197,3.0,8.0,84,0.00,,OVC043,0.00,VWS V14.01,2013-01-27 14:05:00,
2013-01-27 09:10:00,24.8,20.7,30.33,SSE,147,4.0,6.0,84,0.00,,OVC043,0.00,VWS V14.01,2013-01-27 14:10:00,
2013-01-27 09:15:00,24.9,20.8,30.33,SW,218,9.0,11.0,84,0.00,,OVC043,0.00,VWS V14.01,2013-01-27 14:15:00,
2013-01-27 09:20:00,25.0,20.9,30.33,South,188,3.0,7.0,84,0.00,,OVC043,0.00,VWS V14.01,2013-01-27 14:20:00,
2013-01-27 09:25:00,25.1,21.0,30.34,South,180,1.0,4.0,84,0.00,,OVC043,0.00,VWS V14.01,2013-01-27 14:25:00,
2013-01-27 09:30:00,25.2,20.8,30.34,SW,215,3.0,6.0,83,0.00,,OVC043,0.00,VWS V14.01,2013-01-27 14:30:00,
2013-01-27 09:35:00,25.2,20.8,30.34,SW,215,7.0,9.0,83,0.00,,OVC043,0.00,VWS V14.01,2013-01-27 14:35:00,
2013-01-27 09:40:00,25.4,21.0,30.33,WSW,241,3.0,7.0,83,0.00,,OVC043,0.00,VWS V14.01,2013-01-27 14:40:00,
2013-01-27 09:45:00,25.6,21.2,30.34,SW,226,5.0,5.0,83,0.00,,OVC043,0.00,VWS V14.01,2013-01-27 14:45:00,
2013-01-27 09:50:00,25.6,21.2,30.34,SW,221,6.0,7.0,83,0.00,,OVC043,0.00,VWS V14.01,2013-01-27 14:50:00,
2013-01-27 09:55:00,25.7,21.0,30.34,SW,218,5.0,8.0,82,0.00,,OVC043,0.00,VWS V14.01,2013-01-27 14:55:00,
2013-01-27 10:00:00,25.8,21.1,30.34,SW,233,5.0,6.0,82,0.00,,OVC043,0.00,VWS V14.01,2013-01-27 15:00:00,
2013-01-27 10:05:00,25.8,21.1,30.33,SW,216,5.0,6.0,82,0.00,,OVC060,0.00,VWS V14.01,2013-01-27 15:05:00,
2013-01-27 10:10:00,25.9,21.5,30.34,SW,223,4.0,6.0,83,0.00,,OVC060,0.00,VWS V14.01,2013-01-27 15:10:00,
2013-01-27 10:15:00,25.9,21.2,30.34,SSW,210,2.0,6.0,82,0.00,,OVC060,0.00,VWS V14.01,2013-01-27 15:15:00,
2013-01-27 10:20:00,26.0,21.6,30.34,SW,231,3.0,6.0,83,0.00,,OVC060,0.00,VWS V14.01,2013-01-27 15:20:00,
2013-01-27 10:25:00,26.0,21.6,30.34,SW,217,3.0,9.0,83,0.00,,OVC060,0.00,VWS V14.01,2013-01-27 15:25:00,
2013-01-27 10:30:00,26.0,21.6,30.34,SW,223,8.0,8.0,83,0.00,,OVC060,0.00,VWS V14.01,2013-01-27 15:30:00,
2013-01-27 10:35:00,26.0,21.6,30.34,SSW,198,3.0,6.0,83,0.00,,OVC060,0.00,VWS V14.01,2013-01-27 15:35:00,
2013-01-27 10:40:00,26.1,21.6,30.34,SSW,193,2.0,6.0,83,0.00,,OVC060,0.00,VWS V14.01,2013-01-27 15:40:00,
2013-01-27 10:45:00,26.2,21.8,30.34,WSW,238,8.0,12.0,83,0.00,,OVC060,0.00,VWS V14.01,2013-01-27 15:45:00,
2013-01-27 10:50:00,26.3,21.9,30.34,SW,229,6.0,9.0,83,0.00,,OVC060,0.00,VWS V14.01,2013-01-27 15:50:00,
2013-01-27 10:55:00,26.5,22.0,30.34,West,266,10.0,14.0,83,0.00,,OVC060,0.00,VWS V14.01,2013-01-27 15:55:00,
2013-01-27 11:00:00,26.6,21.9,30.34,SSW,205,7.0,10.0,82,0.00,,OVC060,0.00,VWS V14.01,2013-01-27 16:00:00,
2013-01-27 11:05:00,26.7,22.0,30.35,WSW,239,9.0,12.0,82,0.00,,OVC060,0.00,VWS V14.01,2013-01-27 16:05:00,
2013-01-27 11:10:00,26.8,22.0,30.34,SSW,203,4.0,9.0,82,0.00,,OVC060,0.00,VWS V14.01,2013-01-27 16:10:00,
2013-01-27 11:15:00,26.9,22.1,30.34,SW,219,4.0,7.0,82,0.00,,OVC060,0.00,VWS V14.01,2013-01-27 16:15:00,
2013-01-27 11:20:00,27.0,22.0,30.34,SW,215,5.0,8.0,81,0.00,,OVC060,0.00,VWS V14.01,2013-01-27 16:20:00,
2013-01-27 11:25:00,27.1,22.1,30.34,SSE,155,2.0,10.0,81,0.00,,OVC060,0.00,VWS V14.01,2013-01-27 16:25:00,
2013-01-27 11:30:00,27.1,22.1,30.34,SSW,200,4.0,6.0,81,0.00,,OVC060,0.00,VWS V14.01,2013-01-27 16:30:00,
2013-01-27 11:35:00,27.2,22.1,30.33,SE,130,6.0,11.0,81,0.00,,OVC060,0.00,VWS V14.01,2013-01-27 16:35:00,
2013-01-27 11:40:00,27.3,22.5,30.33,SW,231,4.0,7.0,82,0.00,,OVC060,0.00,VWS V14.01,2013-01-27 16:40:00,
2013-01-27 11:45:00,27.3,22.2,30.34,SW,229,8.0,9.0,81,0.00,,OVC060,0.00,VWS V14.01,2013-01-27 16:45:00,
2013-01-27 11:50:00,27.4,22.6,30.33,SE,134,5.0,7.0,82,0.00,,OVC060,0.00,VWS V14.01,2013-01-27 16:50:00,
2013-01-27 11:55:00,27.6,22.5,30.33,SW,216,5.0,8.0,81,0.00,,OVC060,0.00,VWS V14.01,2013-01-27 16:55:00,
2013-01-27 12:00:00,27.7,22.6,30.33,SW,217,7.0,10.0,81,0.00,,OVC060,0.00,VWS V14.01,2013-01-27 17:00:00,
2013-01-27 12:05:00,27.7,22.6,30.33,SE,139,3.0,7.0,81,0.00,,OVC035,0.00,VWS V14.01,2013-01-27 17:05:00,
2013-01-27 12:10:00,27.8,22.7,30.33,SW,227,3.0,4.0,81,0.00,,OVC035,0.00,VWS V14.01,2013-01-27 17:10:00,
2013-01-27 12:15:00,28.0,22.9,30.32,SSE,159,2.0,4.0,81,0.00,,OVC035,0.00,VWS V14.01,2013-01-27 17:15:00,
2013-01-27 12:20:00,28.3,22.9,30.32,SW,217,6.0,8.0,80,0.00,,OVC035,0.00,VWS V14.01,2013-01-27 17:20:00,
2013-01-27 12:25:00,28.4,22.7,30.32,SSW,211,5.0,8.0,79,0.00,,OVC035,0.00,VWS V14.01,2013-01-27 17:25:00,
2013-01-27 12:30:00,28.5,22.8,30.32,SSW,203,4.0,6.0,79,0.00,,OVC035,0.00,VWS V14.01,2013-01-27 17:30:00,
2013-01-27 12:35:00,28.6,22.6,30.32,SSW,194,5.0,10.0,78,0.00,,OVC035,0.00,VWS V14.01,2013-01-27 17:35:00,
2013-01-27 12:41:00,28.7,22.7,30.32,SSW,200,7.0,9.0,78,0.00,,OVC035,0.00,VWS V14.01,2013-01-27 17:41:00,
2013-01-27 12:46:00,28.9,22.9,30.31,South,189,9.0,12.0,78,0.00,,OVC035,0.00,VWS V14.01,2013-01-27 17:46:00,
2013-01-27 12:51:00,29.0,22.7,30.31,West,262,5.0,10.0,77,0.00,,OVC035,0.00,VWS V14.01,2013-01-27 17:51:00,
2013-01-27 12:56:00,29.1,22.8,30.31,SW,225,8.0,9.0,77,0.00,,OVC035,0.00,VWS V14.01,2013-01-27 17:56:00,
2013-01-27 13:01:00,29.3,23.0,30.31,SSW,195,8.0,13.0,77,0.00,,OVC035,0.00,VWS V14.01,2013-01-27 18:01:00,
2013-01-27 13:06:00,29.3,23.0,30.31,SW,227,5.0,10.0,77,0.00,,OVC070,0.00,VWS V14.01,2013-01-27 18:06:00,
2013-01-27 13:11:00,29.3,22.7,30.31,SE,139,4.0,8.0,76,0.00,,OVC070,0.00,VWS V14.01,2013-01-27 18:11:00,
2013-01-27 13:16:00,29.3,23.0,30.30,SSW,196,6.0,7.0,77,0.00,,OVC070,0.00,VWS V14.01,2013-01-27 18:16:00,
2013-01-27 13:21:00,29.3,22.7,30.30,SSW,204,4.0,6.0,76,0.00,,OVC070,0.00,VWS V14.01,2013-01-27 18:21:00,
2013-01-27 13:26:00,29.4,22.8,30.30,SSW,210,4.0,6.0,76,0.00,,OVC070,0.00,VWS V14.01,2013-01-27 18:26:00,
2013-01-27 13:31:00,29.6,23.0,30.29,WSW,242,5.0,5.0,76,0.00,,OVC070,0.00,VWS V14.01,2013-01-27 18:31:00,
2013-01-27 13:36:00,29.7,22.8,30.29,South,189,8.0,8.0,75,0.00,,OVC070,0.00,VWS V14.01,2013-01-27 18:36:00,
2013-01-27 13:41:00,29.9,23.0,30.29,SSW,209,4.0,6.0,75,0.00,,OVC070,0.00,VWS V14.01,2013-01-27 18:41:00,
2013-01-27 13:46:00,30.0,22.7,30.28,SW,222,7.0,7.0,74,0.00,,OVC070,0.00,VWS V14.01,2013-01-27 18:46:00,
2013-01-27 13:51:00,30.1,22.8,30.28,SSE,151,8.0,8.0,74,0.00,,OVC070,0.00,VWS V14.01,2013-01-27 18:51:00,
2013-01-27 13:56:00,30.0,22.4,30.27,WSW,238,7.0,9.0,73,0.00,,OVC070,0.00,VWS V14.01,2013-01-27 18:56:00,
2013-01-27 14:01:00,30.0,22.1,30.27,South,171,5.0,8.0,72,0.00,,OVC070,0.00,VWS V14.01,2013-01-27 19:01:00,
2013-01-27 14:06:00,30.0,21.8,30.27,WSW,239,2.0,6.0,71,0.00,,OVC075,0.00,VWS V14.01,2013-01-27 19:06:00,
2013-01-27 14:11:00,30.0,21.8,30.27,SSE,148,2.0,5.0,71,0.00,,OVC075,0.00,VWS V14.01,2013-01-27 19:11:00,
2013-01-27 14:16:00,30.1,21.9,30.26,SSW,199,6.0,8.0,71,0.00,,OVC075,0.00,VWS V14.01,2013-01-27 19:16:00,
2013-01-27 14:21:00,30.1,21.9,30.26,South,173,3.0,5.0,71,0.00,,OVC075,0.00,VWS V14.01,2013-01-27 19:21:00,
2013-01-27 14:26:00,30.1,21.9,30.26,SW,219,5.0,9.0,71,0.00,,OVC075,0.00,VWS V14.01,2013-01-27 19:26:00,
2013-01-27 14:31:00,30.1,21.9,30.26,SW,217,5.0,6.0,71,0.00,,OVC075,0.00,VWS V14.01,2013-01-27 19:31:00,
2013-01-27 14:36:00,30.0,21.8,30.25,SW,221,4.0,8.0,71,0.00,,OVC075,0.00,VWS V14.01,2013-01-27 19:36:00,
2013-01-27 14:41:00,30.0,21.4,30.25,SSW,202,6.0,8.0,70,0.00,,OVC075,0.00,VWS V14.01,2013-01-27 19:41:00,
2013-01-27 14:46:00,30.0,21.8,30.25,WSW,246,6.0,6.0,71,0.00,,OVC075,0.00,VWS V14.01,2013-01-27 19:46:00,
2013-01-27 14:51:00,30.1,21.9,30.24,SW,215,5.0,6.0,71,0.00,,OVC075,0.00,VWS V14.01,2013-01-27 19:51:00,
2013-01-27 14:56:00,30.0,21.8,30.24,SW,221,4.0,5.0,71,0.00,,OVC075,0.00,VWS V14.01,2013-01-27 19:56:00,
2013-01-27 15:01:00,30.1,21.5,30.24,SSW,202,3.0,6.0,70,0.00,,OVC100,0.00,VWS V14.01,2013-01-27 20:01:00,
2013-01-27 15:07:00,30.2,21.6,30.24,SSW,210,2.0,3.0,70,0.00,,OVC100,0.00,VWS V14.01,2013-01-27 20:07:00,
2013-01-27 15:12:00,30.1,21.9,30.24,SW,221,3.0,5.0,71,0.00,,OVC100,0.00,VWS V14.01,2013-01-27 20:12:00,
2013-01-27 15:17:00,29.9,21.7,30.24,South,175,5.0,8.0,71,0.00,,OVC100,0.00,VWS V14.01,2013-01-27 20:17:00,
2013-01-27 15:22:00,29.8,21.6,30.24,SSW,212,8.0,8.0,71,0.00,,OVC100,0.00,VWS V14.01,2013-01-27 20:22:00,
2013-01-27 15:27:00,29.8,21.9,30.24,SW,234,3.0,5.0,72,0.00,,OVC100,0.00,VWS V14.01,2013-01-27 20:27:00,
2013-01-27 15:32:00,29.8,21.6,30.23,SW,217,5.0,8.0,71,0.00,,OVC100,0.00,VWS V14.01,2013-01-27 20:32:00,
2013-01-27 15:37:00,29.9,21.7,30.24,South,188,3.0,5.0,71,0.00,,OVC100,0.00,VWS V14.01,2013-01-27 20:37:00,
2013-01-27 15:42:00,29.9,21.7,30.24,SW,227,4.0,5.0,71,0.00,,OVC100,0.00,VWS V14.01,2013-01-27 20:42:00,
2013-01-27 15:47:00,30.1,21.9,30.23,WSW,250,4.0,4.0,71,0.00,,OVC100,0.00,VWS V14.01,2013-01-27 20:47:00,
2013-01-27 15:52:00,30.0,21.8,30.23,SSW,213,1.0,3.0,71,0.00,,OVC100,0.00,VWS V14.01,2013-01-27 20:52:00,
2013-01-27 15:57:00,30.0,21.4,30.23,SSW,213,3.0,4.0,70,0.00,,OVC100,0.00,VWS V14.01,2013-01-27 20:57:00,
2013-01-27 16:02:00,30.0,21.8,30.23,SSW,210,2.0,3.0,71,0.00,,OVC100,0.00,VWS V14.01,2013-01-27 21:02:00,
2013-01-27 16:07:00,30.0,21.8,30.23,SSW,194,1.0,3.0,71,0.00,,OVC100,0.00,VWS V14.01,2013-01-27 21:07:00,
2013-01-27 16:12:00,30.0,21.8,30.23,WSW,240,2.0,3.0,71,0.00,,OVC100,0.00,VWS V14.01,2013-01-27 21:12:00,
2013-01-27 16:17:00,30.1,21.9,30.23,SW,214,3.0,4.0,71,0.00,,OVC100,0.00,VWS V14.01,2013-01-27 21:17:00,
2013-01-27 16:22:00,30.1,21.9,30.23,SSW,210,2.0,3.0,71,0.00,,OVC100,0.00,VWS V14.01,2013-01-27 21:22:00,
2013-01-27 16:27:00,30.1,21.9,30.23,SSW,205,3.0,4.0,71,0.00,,OVC100,0.00,VWS V14.01,2013-01-27 21:27:00,
2013-01-27 16:32:00,30.0,21.8,30.23,SSW,213,4.0,4.0,71,0.00,,OVC100,0.00,VWS V14.01,2013-01-27 21:32:00,
2013-01-27 16:37:00,30.0,21.8,30.23,SE,145,1.0,2.0,71,0.00,,OVC100,0.00,VWS V14.01,2013-01-27 21:37:00,
2013-01-27 16:42:00,29.9,22.0,30.23,SSW,203,3.0,5.0,72,0.00,,OVC100,0.00,VWS V14.01,2013-01-27 21:42:00,
2013-01-27 16:47:00,29.8,21.9,30.23,SSE,162,2.0,3.0,72,0.00,,OVC100,0.00,VWS V14.01,2013-01-27 21:47:00,
2013-01-27 16:52:00,29.8,21.9,30.23,SSE,150,1.0,2.0,72,0.00,,OVC100,0.00,VWS V14.01,2013-01-27 21:52:00,
2013-01-27 16:57:00,29.7,21.8,30.23,SSE,165,3.0,3.0,72,0.00,,OVC100,0.00,VWS V14.01,2013-01-27 21:57:00,
2013-01-27 17:02:00,29.7,22.1,30.23,SSE,153,1.0,3.0,73,0.00,,FEW100,0.00,VWS V14.01,2013-01-27 22:02:00,
2013-01-27 17:07:00,29.7,22.1,30.23,SSE,158,1.0,2.0,73,0.00,,FEW100,0.00,VWS V14.01,2013-01-27 22:07:00,
2013-01-27 17:12:00,29.6,22.0,30.23,SE,144,2.0,3.0,73,0.00,,FEW100,0.00,VWS V14.01,2013-01-27 22:12:00,
2013-01-27 17:17:00,29.5,21.9,30.23,SSE,168,1.0,1.0,73,0.00,,FEW100,0.00,VWS V14.01,2013-01-27 22:17:00,
2013-01-27 17:22:00,29.4,22.1,30.22,SE,140,2.0,2.0,74,0.00,,FEW100,0.00,VWS V14.01,2013-01-27 22:22:00,
2013-01-27 17:27:00,29.3,22.1,30.23,SSE,152,1.0,2.0,74,0.00,,FEW100,0.00,VWS V14.01,2013-01-27 22:27:00,
2013-01-27 17:32:00,29.2,22.0,30.23,South,169,1.0,3.0,74,0.00,,FEW100,0.00,VWS V14.01,2013-01-27 22:32:00,
2013-01-27 17:37:00,29.1,21.9,30.23,South,169,1.0,1.0,74,0.00,,FEW100,0.00,VWS V14.01,2013-01-27 22:37:00,
2013-01-27 17:42:00,29.0,21.8,30.23,SE,146,0.0,1.0,74,0.00,,FEW100,0.00,VWS V14.01,2013-01-27 22:42:00,
2013-01-27 17:47:00,29.0,21.8,30.22,SSE,155,1.0,1.0,74,0.00,,FEW100,0.00,VWS V14.01,2013-01-27 22:47:00,
2013-01-27 17:52:00,29.0,21.8,30.22,SSE,160,1.0,2.0,74,0.00,,FEW100,0.00,VWS V14.01,2013-01-27 22:52:00,
2013-01-27 17:57:00,29.0,21.8,30.22,SSE,154,1.0,1.0,74,0.00,,FEW100,0.00,VWS V14.01,2013-01-27 22:57:00,
2013-01-27 18:02:00,29.1,21.9,30.22,SE,146,2.0,2.0,74,0.00,,BKN100,0.00,VWS V14.01,2013-01-27 23:02:00,
2013-01-27 18:07:00,29.2,22.0,30.22,SE,146,0.0,1.0,74,0.00,,BKN100,0.00,VWS V14.01,2013-01-27 23:07:00,
2013-01-27 18:12:00,29.3,21.7,30.22,SSE,163,1.0,2.0,73,0.00,,BKN100,0.00,VWS V14.01,2013-01-27 23:12:00,
2013-01-27 18:17:00,29.2,22.0,30.22,SSE,163,1.0,2.0,74,0.00,,BKN100,0.00,VWS V14.01,2013-01-27 23:17:00,
2013-01-27 18:22:00,29.3,21.7,30.22,SSE,163,1.0,2.0,73,0.00,,BKN100,0.00,VWS V14.01,2013-01-27 23:22:00,
2013-01-27 18:27:00,29.3,22.1,30.22,SSE,163,1.0,2.0,74,0.00,,BKN100,0.00,VWS V14.01,2013-01-27 23:27:00,
2013-01-27 18:32:00,29.2,22.3,30.21,SE,135,2.0,3.0,75,0.00,,OVC100,0.00,VWS V14.01,2013-01-27 23:32:00,
2013-01-27 18:37:00,29.2,22.3,30.21,ESE,119,4.0,4.0,75,0.00,,OVC100,0.00,VWS V14.01,2013-01-27 23:37:00,
2013-01-27 18:42:00,29.1,22.5,30.22,SE,125,2.0,4.0,76,0.00,,OVC100,0.00,VWS V14.01,2013-01-27 23:42:00,
2013-01-27 18:47:00,29.1,22.5,30.22,ESE,116,2.0,3.0,76,0.00,,OVC100,0.00,VWS V14.01,2013-01-27 23:47:00,
2013-01-27 18:52:00,29.0,22.7,30.21,ESE,110,3.0,4.0,77,0.00,,OVC100,0.00,VWS V14.01,2013-01-27 23:52:00,
2013-01-27 18:57:00,28.9,22.6,30.22,ESE,113,3.0,4.0,77,0.00,,OVC100,0.00,VWS V14.01,2013-01-27 23:57:00,
2013-01-27 19:02:00,28.8,22.5,30.21,SE,125,2.0,3.0,77,0.00,,OVC021,0.00,VWS V14.01,2013-01-28 00:02:00,
2013-01-27 19:07:00,28.8,22.8,30.21,SE,125,1.0,2.0,78,0.00,,OVC021,0.00,VWS V14.01,2013-01-28 00:07:00,
2013-01-27 19:13:00,28.7,22.7,30.21,SE,128,2.0,3.0,78,0.00,,OVC021,0.00,VWS V14.01,2013-01-28 00:13:00,
2013-01-27 19:18:00,28.8,22.8,30.21,SE,125,1.0,2.0,78,0.00,,OVC021,0.00,VWS V14.01,2013-01-28 00:18:00,
2013-01-27 19:23:00,28.7,22.7,30.21,ESE,121,4.0,4.0,78,0.00,,OVC021,0.00,VWS V14.01,2013-01-28 00:23:00,
2013-01-27 19:28:00,28.7,22.7,30.21,ESE,121,2.0,2.0,78,0.00,,OVC021,0.00,VWS V14.01,2013-01-28 00:28:00,
2013-01-27 19:33:00,28.7,23.0,30.21,SE,126,2.0,2.0,79,0.00,,OVC021,0.00,VWS V14.01,2013-01-28 00:33:00,
2013-01-27 19:38:00,28.7,23.0,30.21,SSE,162,1.0,1.0,79,0.00,,OVC021,0.00,VWS V14.01,2013-01-28 00:38:00,
2013-01-27 19:43:00,28.7,23.3,30.21,SW,216,3.0,3.0,80,0.00,,OVC021,0.00,VWS V14.01,2013-01-28 00:43:00,
2013-01-27 19:48:00,28.5,23.7,30.21,ESE,121,5.0,5.0,82,0.00,,OVC021,0.00,VWS V14.01,2013-01-28 00:48:00,
2013-01-27 19:53:00,28.3,23.8,30.21,SE,136,3.0,3.0,83,0.00,,OVC021,0.00,VWS V14.01,2013-01-28 00:53:00,
2013-01-27 19:58:00,28.0,24.1,30.20,SE,128,2.0,2.0,85,0.00,,OVC021,0.00,VWS V14.01,2013-01-28 00:58:00,
2013-01-27 20:03:00,27.8,24.2,30.20,SE,128,3.0,3.0,86,0.00,,,0.00,VWS V14.01,2013-01-28 01:03:00,
2013-01-27 20:08:00,27.6,24.5,30.20,SE,127,1.0,3.0,88,0.00,,,0.00,VWS V14.01,2013-01-28 01:08:00,
2013-01-27 20:13:00,27.5,24.4,30.20,SE,138,1.0,3.0,88,0.00,,,0.00,VWS V14.01,2013-01-28 01:13:00,
2013-01-27 20:18:00,27.5,24.7,30.20,ESE,123,3.0,3.0,89,0.00,,,0.00,VWS V14.01,2013-01-28 01:18:00,
2013-01-27 20:23:00,27.3,24.5,30.20,ESE,112,3.0,5.0,89,0.00,,,0.00,VWS V14.01,2013-01-28 01:23:00,
2013-01-27 20:28:00,27.2,24.7,30.20,SE,126,3.0,4.0,90,0.00,,,0.00,VWS V14.01,2013-01-28 01:28:00,
2013-01-27 20:33:00,27.1,24.6,30.19,ESE,116,2.0,4.0,90,0.00,,,0.00,VWS V14.01,2013-01-28 01:33:00,
2013-01-27 20:38:00,27.0,24.5,30.19,ESE,115,4.0,4.0,90,0.00,,,0.00,VWS V14.01,2013-01-28 01:38:00,
2013-01-27 20:43:00,26.9,24.4,30.19,ESE,115,3.0,4.0,90,0.00,,,0.00,VWS V14.01,2013-01-28 01:43:00,
2013-01-27 20:48:00,26.9,24.4,30.19,SE,132,4.0,5.0,90,0.00,,,0.00,VWS V14.01,2013-01-28 01:48:00,
2013-01-27 20:53:00,26.8,24.5,30.18,ESE,120,2.0,4.0,91,0.00,,,0.00,VWS V14.01,2013-01-28 01:53:00,
2013-01-27 20:58:00,26.7,24.4,30.18,ESE,122,4.0,5.0,91,0.00,,,0.00,VWS V14.01,2013-01-28 01:58:00,
2013-01-27 21:03:00,26.7,24.4,30.17,SE,127,5.0,5.0,91,0.00,,,0.00,VWS V14.01,2013-01-28 02:03:00,
2013-01-27 21:08:00,26.7,24.4,30.17,SE,128,5.0,7.0,91,0.00,,,0.00,VWS V14.01,2013-01-28 02:08:00,
2013-01-27 21:13:00,26.7,24.7,30.17,SE,128,3.0,5.0,92,0.00,,,0.00,VWS V14.01,2013-01-28 02:13:00,
2013-01-27 21:18:00,26.7,24.4,30.17,ESE,121,4.0,4.0,91,0.00,,,0.00,VWS V14.01,2013-01-28 02:18:00,
2013-01-27 21:23:00,26.7,24.4,30.16,SE,125,8.0,8.0,91,0.00,,,0.00,VWS V14.01,2013-01-28 02:23:00,
2013-01-27 21:28:00,26.8,24.5,30.16,ESE,106,5.0,5.0,91,0.00,,,0.00,VWS V14.01,2013-01-28 02:28:00,
2013-01-27 21:33:00,26.8,24.5,30.16,ESE,114,8.0,9.0,91,0.00,,,0.00,VWS V14.01,2013-01-28 02:33:00,
2013-01-27 21:38:00,26.8,24.5,30.16,ESE,115,7.0,8.0,91,0.00,,,0.00,VWS V14.01,2013-01-28 02:38:00,
2013-01-27 21:43:00,26.9,24.6,30.15,ESE,122,8.0,9.0,91,0.00,,,0.00,VWS V14.01,2013-01-28 02:43:00,
2013-01-27 21:48:00,26.9,24.6,30.15,SE,139,6.0,7.0,91,0.00,,,0.00,VWS V14.01,2013-01-28 02:48:00,
2013-01-27 21:53:00,26.9,24.6,30.15,ESE,118,4.0,5.0,91,0.00,,,0.00,VWS V14.01,2013-01-28 02:53:00,
2013-01-27 21:58:00,26.9,24.9,30.14,ESE,121,7.0,9.0,92,0.00,,,0.00,VWS V14.01,2013-01-28 02:58:00,
2013-01-27 22:03:00,26.9,24.9,30.14,SE,136,4.0,7.0,92,0.00,,,0.00,VWS V14.01,2013-01-28 03:03:00,
2013-01-27 22:08:00,27.0,25.0,30.14,ESE,117,3.0,7.0,92,0.00,,,0.00,VWS V14.01,2013-01-28 03:08:00,
2013-01-27 22:13:00,27.0,25.0,30.14,SE,125,5.0,7.0,92,0.00,,,0.00,VWS V14.01,2013-01-28 03:13:00,
2013-01-27 22:18:00,27.0,25.0,30.13,ESE,121,8.0,8.0,92,0.00,,,0.00,VWS V14.01,2013-01-28 03:18:00,
2013-01-27 22:23:00,27.1,25.1,30.13,ESE,118,5.0,8.0,92,0.00,,,0.00,VWS V14.01,2013-01-28 03:23:00,
2013-01-27 22:28:00,27.1,25.1,30.12,SE,128,6.0,6.0,92,0.00,,,0.00,VWS V14.01,2013-01-28 03:28:00,
2013-01-27 22:33:00,27.1,25.1,30.12,ESE,121,7.0,7.0,92,0.00,,,0.00,VWS V14.01,2013-01-28 03:33:00,
2013-01-27 22:38:00,27.2,25.2,30.11,SE,125,11.0,11.0,92,0.00,,,0.00,VWS V14.01,2013-01-28 03:38:00,
2013-01-27 22:43:00,27.2,25.2,30.11,East,88,9.0,9.0,92,0.00,,,0.00,VWS V14.01,2013-01-28 03:43:00,
2013-01-27 22:48:00,27.2,25.2,30.11,SE,131,5.0,5.0,92,0.00,,,0.00,VWS V14.01,2013-01-28 03:48:00,
2013-01-27 22:53:00,27.2,24.9,30.10,ESE,117,10.0,12.0,91,0.00,,,0.00,VWS V14.01,2013-01-28 03:53:00,
2013-01-27 22:59:00,27.3,25.0,30.10,SE,129,4.0,5.0,91,0.00,,,0.00,VWS V14.01,2013-01-28 03:59:00,
2013-01-27 23:04:00,27.3,25.0,30.10,ESE,119,8.0,9.0,91,0.00,,,0.00,VWS V14.01,2013-01-28 04:04:00,
2013-01-27 23:09:00,27.3,25.0,30.09,SE,139,6.0,11.0,91,0.00,,,0.00,VWS V14.01,2013-01-28 04:09:00,
2013-01-27 23:14:00,27.3,25.3,30.09,SE,130,5.0,8.0,92,0.00,,,0.00,VWS V14.01,2013-01-28 04:14:00,
2013-01-27 23:19:00,27.3,25.0,30.09,SE,132,5.0,10.0,91,0.00,,,0.00,VWS V14.01,2013-01-28 04:19:00,
2013-01-27 23:24:00,27.3,25.0,30.08,SE,129,8.0,11.0,91,0.00,,,0.00,VWS V14.01,2013-01-28 04:24:00,
2013-01-27 23:29:00,27.3,25.0,30.08,SE,134,9.0,9.0,91,0.00,,,0.00,VWS V14.01,2013-01-28 04:29:00,
2013-01-27 23:34:00,27.3,25.0,30.08,SE,138,6.0,8.0,91,0.00,,,0.00,VWS V14.01,2013-01-28 04:34:00,
2013-01-27 23:39:00,27.3,25.0,30.08,SE,128,3.0,9.0,91,0.00,,,0.00,VWS V14.01,2013-01-28 04:39:00,
2013-01-27 23:44:00,27.3,24.8,30.07,SE,131,8.0,12.0,90,0.00,,,0.00,VWS V14.01,2013-01-28 04:44:00,
2013-01-27 23:49:00,27.3,24.8,30.07,ESE,119,8.0,9.0,90,0.00,,,0.00,VWS V14.01,2013-01-28 04:49:00,
2013-01-27 23:54:00,27.3,24.8,30.07,SE,132,10.0,11.0,90,0.00,,,0.00,VWS V14.01,2013-01-28 04:54:00,
2013-01-27 23:59:00,27.3,24.8,30.07,SE,130,5.0,7.0,90,0.00,,,0.00,VWS V14.01,2013-01-28 04:59:00,